East Union, Washington
Current Conditions -  °F | °C
As of 11:53 AM on Wednesday 17 Dec 2014 (Local Time) from KBFI Reporting Station
Overcast Overcast  
Wind Chill: 10°   Ceiling: 6000
Heat Index: 10°   Visibility: 10mi
Dew Point:   Wind: 0mph
Humidity: 71%   Direction: NA
Pressure: 29.84"   Gusts: NA
Location:  47.6108°N, 122.302°W
Report Text: KBFI 171953Z 00000KT 10SM OVC060 10/05 A2984 RMK AO2 SLP104 T01000050
Loading
Personal Weather Stations






























Interactive Weather Map New forecast layout! Learn more

10-Day Weather Forecast

Advertisements
Track Severe Weather on mobile